Bad Axe, MI

10:12 AM EST on February 07, 2016 (GMT -0500)
Huron County Memorial

Weather History for KBAX - October, 2012

Change the Weather History Date:

Sunday, October 14, 2012

  Actual Average (KP58) Record (KP58)
Temperature  
Mean Temperature 63 °F -  
Max Temperature 67 °F 57 °F 72 °F (2008)
Min Temperature 58 °F 43 °F 30 °F (2002)
Degree Days  
Heating Degree Days 2    
Growing Degree Days 13 (Base 50)    
Moisture  
Dew Point 60 °F    
Average Humidity 91    
Maximum Humidity 100    
Minimum Humidity 76    
Precipitation  
Precipitation 0.00 in - - ()
Sea Level Pressure  
Sea Level Pressure 29.63 in    
Wind  
Wind Speed 13 mph (SSW)    
Max Wind Speed 23 mph    
Max Gust Speed 32 mph    
Visibility 6 miles    
Events Rain    
Averages and records for this station are not official NWS values.
T = Trace of Precipitation, MM = Missing Value Source: NWS Daily Summary

Daily Weather History Graph

Daily Weather History Graph

Search for Another Location

Airport or City:

Trip Planner

Search our weather history database for the weather conditions in past years. The results will help you decide how hot, cold, wet, or windy it might be!

Date:

Astronomy

Oct. 14, 2012 Rise Set
Actual Time 7:45 AM EDT 6:49 PM EDT
Civil Twilight 7:16 AM EDT 7:18 PM EDT
Nautical Twilight 6:43 AM EDT 7:51 PM EDT
Astronomical Twilight 6:10 AM EDT 8:24 PM EDT
Moon 6:42 AM EDT (10/14) 6:07 PM EDT (10/14)
Length of Visible Light 12h 01m
Length of Day
11h 03m
Waning Crescent, 1% of the Moon is Illuminated
Oct 14
Waning Crescent
Oct 15
New
Oct 21
First Quarter
Oct 29
Full
Nov 6
Last Quarter

Hourly Weather History & Observations

Time (EDT) Temp. Dew Point Humidity Pressure Visibility Wind Dir Wind Speed Gust Speed Precip Events Conditions
12:13 AM 59.2 °F 59.2 °F 100% 29.82 in 5.0 mi SW 16.1 mph 20.7 mph N/A   Light Drizzle
12:34 AM 60.1 °F 59.9 °F 99% 29.82 in 5.0 mi WSW 16.1 mph 24.2 mph N/A Rain Rain
1:13 AM 60.3 °F 59.7 °F 98% 29.82 in 3.0 mi WSW 16.1 mph 23.0 mph N/A   Light Drizzle
1:34 AM 60.3 °F 59.7 °F 98% 29.81 in 3.0 mi WSW 11.5 mph 16.1 mph N/A   Drizzle
1:53 AM 60.6 °F 60.1 °F 98% 29.82 in 4.0 mi SW 10.4 mph 16.1 mph N/A   Light Drizzle
2:13 AM 60.8 °F 60.3 °F 98% 29.82 in 5.0 mi SW 11.5 mph 17.3 mph N/A   Overcast
2:34 AM 60.8 °F 60.1 °F 97% 29.82 in 4.0 mi SW 9.2 mph 17.3 mph N/A   Overcast
2:53 AM 60.6 °F 60.1 °F 98% 29.82 in 3.0 mi SW 11.5 mph - N/A Rain Rain
3:13 AM 60.3 °F 59.9 °F 99% 29.81 in 4.0 mi SW 8.1 mph - N/A   Light Drizzle
3:34 AM 60.1 °F 59.9 °F 99% 29.81 in 4.0 mi SSW 8.1 mph - N/A   Overcast
3:53 AM 59.9 °F 59.9 °F 100% 29.81 in 3.0 mi SW 6.9 mph - N/A   Overcast
4:13 AM 60.4 °F 60.3 °F 99% 29.81 in 2.5 mi SW 5.8 mph - N/A   Heavy Drizzle
4:33 AM 61.0 °F 60.8 °F 99% 29.81 in 3.0 mi SW 5.8 mph - N/A   Drizzle
4:54 AM 61.0 °F 60.8 °F 99% 29.80 in 1.8 mi Calm Calm - N/A   Heavy Drizzle
5:14 AM 60.8 °F 60.8 °F 100% 29.80 in 1.2 mi Calm Calm - N/A Rain Heavy Rain
5:33 AM 60.8 °F 60.8 °F 100% 29.80 in 1.5 mi Calm Calm - N/A Rain Light Rain
5:54 AM 60.6 °F 60.6 °F 100% 29.79 in 1.2 mi Calm Calm - N/A Rain Rain
6:14 AM 60.8 °F 60.8 °F 100% 29.79 in 1.5 mi South 4.6 mph - N/A Rain Light Rain
6:33 AM 61.0 °F 61.0 °F 100% 29.78 in 2.5 mi South 5.8 mph - N/A   Drizzle
6:54 AM 61.7 °F 61.7 °F 100% 29.78 in 3.0 mi South 5.8 mph - N/A Rain Light Rain
7:13 AM 61.7 °F 61.7 °F 100% 29.78 in 3.0 mi SSW 4.6 mph - N/A Rain Rain
7:34 AM 62.6 °F 62.6 °F 100% 29.78 in 3.0 mi SSW 8.1 mph - N/A Rain Light Rain
7:54 AM 62.8 °F 62.8 °F 100% 29.78 in 3.0 mi SSW 8.1 mph - N/A Rain Rain
8:13 AM 63.0 °F 63.0 °F 100% 29.77 in 2.5 mi SSW 9.2 mph - N/A Rain Rain
8:34 AM 63.0 °F 63.0 °F 100% 29.77 in 2.5 mi SSW 11.5 mph - N/A Rain Rain
8:54 AM 63.0 °F 63.0 °F 100% 29.76 in 2.5 mi South 8.1 mph - N/A Rain Rain
9:13 AM 63.0 °F 62.8 °F 99% 29.75 in 2.5 mi South 8.1 mph - N/A Rain Rain
9:34 AM 63.0 °F 62.8 °F 99% 29.74 in 2.0 mi South 11.5 mph - N/A Rain Heavy Rain
9:54 AM 63.1 °F 63.0 °F 99% 29.73 in 2.5 mi South 10.4 mph - N/A Rain Rain
10:13 AM 63.5 °F 63.3 °F 99% 29.72 in 3.0 mi South 13.8 mph - N/A Rain Rain
10:34 AM 63.7 °F 63.1 °F 98% 29.72 in 4.0 mi South 15.0 mph - N/A   Overcast
10:54 AM 63.7 °F 63.0 °F 97% 29.70 in 3.0 mi South 13.8 mph 17.3 mph N/A Rain Rain
11:13 AM 63.9 °F 63.1 °F 97% 29.67 in 3.0 mi SSE 11.5 mph 19.6 mph N/A Rain Light Rain
11:34 AM 64.4 °F 63.5 °F 97% 29.67 in 4.0 mi South 16.1 mph - N/A   Mostly Cloudy
11:54 AM 65.3 °F 63.7 °F 94% 29.65 in 5.0 mi South 20.7 mph 24.2 mph N/A   Mostly Cloudy
12:13 PM 66.2 °F 64.2 °F 93% 29.63 in 7.0 mi South 16.1 mph 25.3 mph N/A   Overcast
12:34 PM 65.7 °F 63.0 °F 91% 29.62 in 7.0 mi South 19.6 mph - N/A   Overcast
12:54 PM 65.5 °F 62.6 °F 90% 29.62 in 7.0 mi South 17.3 mph 24.2 mph N/A   Overcast
1:14 PM 64.8 °F 62.4 °F 92% 29.62 in 5.0 mi South 17.3 mph 24.2 mph N/A   Drizzle
1:34 PM 64.6 °F 62.6 °F 93% 29.61 in 5.0 mi South 17.3 mph 23.0 mph N/A Rain Rain
1:54 PM 64.4 °F 62.2 °F 93% 29.59 in 3.0 mi South 20.7 mph 25.3 mph N/A   Drizzle
2:14 PM 64.0 °F 62.1 °F 93% 29.58 in 5.0 mi South 19.6 mph 27.6 mph N/A   Overcast
2:34 PM 64.6 °F 61.9 °F 91% 29.57 in 7.0 mi South 19.6 mph 25.3 mph N/A   Overcast
2:54 PM 65.3 °F 61.5 °F 88% 29.56 in 10.0 mi SSW 18.4 mph 25.3 mph N/A   Overcast
3:14 PM 65.8 °F 60.8 °F 84% 29.55 in 10.0 mi South 18.4 mph 28.8 mph N/A   Mostly Cloudy
3:34 PM 66.4 °F 61.2 °F 83% 29.53 in 10.0 mi South 19.6 mph 27.6 mph N/A   Mostly Cloudy
3:53 PM 66.6 °F 59.9 °F 79% 29.52 in 10.0 mi South 19.6 mph 27.6 mph N/A   Mostly Cloudy
4:14 PM 67.1 °F 59.5 °F 77% 29.51 in 10.0 mi South 21.9 mph 31.1 mph N/A   Mostly Cloudy
4:34 PM 66.9 °F 59.4 °F 77% 29.50 in 10.0 mi South 23.0 mph 29.9 mph N/A   Scattered Clouds
4:53 PM 66.7 °F 59.2 °F 77% 29.49 in 10.0 mi South 23.0 mph 32.2 mph N/A   Scattered Clouds
5:14 PM 67.1 °F 59.2 °F 76% 29.48 in 10.0 mi South 21.9 mph 29.9 mph N/A   Mostly Cloudy
5:34 PM 67.1 °F 59.4 °F 76% 29.47 in 10.0 mi South 21.9 mph 29.9 mph N/A   Scattered Clouds
5:54 PM 67.1 °F 59.4 °F 76% 29.47 in 10.0 mi South 23.0 mph 29.9 mph N/A   Clear
6:14 PM 66.9 °F 59.0 °F 76% 29.47 in 10.0 mi South 17.3 mph 27.6 mph N/A   Scattered Clouds
6:34 PM 66.2 °F 58.6 °F 77% 29.47 in 10.0 mi South 20.7 mph 29.9 mph N/A   Scattered Clouds
6:54 PM 65.7 °F 58.5 °F 78% 29.46 in 10.0 mi South 16.1 mph 25.3 mph N/A   Clear
7:14 PM 64.8 °F 58.1 °F 79% 29.45 in 10.0 mi South 18.4 mph 26.5 mph N/A   Scattered Clouds
7:34 PM 64.6 °F 59.0 °F 82% 29.44 in 10.0 mi South 20.7 mph 25.3 mph N/A   Mostly Cloudy
7:54 PM 63.9 °F 59.0 °F 84% 29.43 in 10.0 mi South 17.3 mph 24.2 mph N/A   Mostly Cloudy
8:14 PM 63.7 °F 59.0 °F 85% 29.42 in 10.0 mi South 21.9 mph 26.5 mph N/A   Mostly Cloudy
8:34 PM 64.4 °F 59.0 °F 83% 29.42 in 10.0 mi South 20.7 mph 27.6 mph N/A   Scattered Clouds
8:54 PM 64.2 °F 57.4 °F 78% 29.41 in 10.0 mi South 20.7 mph 31.1 mph N/A   Clear
9:14 PM 63.5 °F 57.2 °F 80% 29.41 in 10.0 mi South 19.6 mph 27.6 mph N/A   Scattered Clouds
9:34 PM 62.2 °F 56.7 °F 82% 29.40 in 10.0 mi SSW 15.0 mph 23.0 mph N/A   Scattered Clouds
9:54 PM 62.6 °F 56.8 °F 81% 29.40 in 10.0 mi SW 11.5 mph 21.9 mph N/A   Overcast
10:14 PM 62.6 °F 57.2 °F 82% 29.40 in 10.0 mi SW 8.1 mph - N/A   Overcast
10:34 PM 61.0 °F 57.2 °F 87% 29.39 in 10.0 mi SW 3.5 mph - N/A Rain Rain
10:54 PM 60.1 °F 57.4 °F 91% 29.37 in 10.0 mi South 12.7 mph 17.3 mph N/A   Light Drizzle
11:14 PM 60.3 °F 57.2 °F 90% 29.35 in 10.0 mi SSW 17.3 mph 25.3 mph N/A   Overcast
11:34 PM 60.1 °F 56.8 °F 89% 29.36 in 10.0 mi West 12.7 mph - N/A   Overcast
11:54 PM 58.8 °F 56.5 °F 92% 29.35 in 7.0 mi WSW 11.5 mph 19.6 mph N/A Rain Rain